This is the latest recevied weather packets stored in our database for station/object DG1GMY-13. If no packets are shown the sender has not sent any weather packets the latest 10 day(s).
| Time | Temp. | Humidity | Pressure | Rain* | Wind** | Luminosity | Snow |
|---|---|---|---|---|---|---|---|
| 1787979370 | 18.89° C | 69% | 1017.4 hPa | - | - | - | - |
| 1787977564 | 18.33° C | 72% | 1017.5 hPa | - | - | - | - |
| 1787975759 | 18.89° C | 70% | 1017.5 hPa | - | - | - | - |
| 1787973953 | 18.33° C | 70% | 1017.4 hPa | - | - | - | - |
| 1787970341 | 18.33° C | 71% | 1017.6 hPa | - | - | - | - |
| 1787968535 | 18.33° C | 71% | 1017.6 hPa | - | - | - | - |
| 1787966729 | 18.33° C | 71% | 1017.6 hPa | - | - | - | - |
| 1787964923 | 18.89° C | 74% | 1017.7 hPa | - | - | - | - |
| 1787963117 | 18.89° C | 81% | 1017.9 hPa | - | - | - | - |
| 1787961311 | 18.89° C | 83% | 1017.9 hPa | - | - | - | - |
| 1787959505 | 18.89° C | 85% | 1017.8 hPa | - | - | - | - |
| 1787957699 | 18.33° C | 84% | 1017.8 hPa | - | - | - | - |
| 1787955893 | 18.89° C | 80% | 1017.5 hPa | - | - | - | - |
| 1787954087 | 19.44° C | 77% | 1017.4 hPa | - | - | - | - |
| 1787952281 | 19.44° C | 82% | 1017 hPa | - | - | - | - |
| 1787950475 | 20° C | 78% | 1016.7 hPa | - | - | - | - |
| 1787948669 | 20° C | 82% | 1016.2 hPa | - | - | - | - |
| 1787946863 | 19.44° C | 89% | 1015.8 hPa | - | - | - | - |
| 1787945057 | 20.56° C | 73% | 1015.4 hPa | - | - | - | - |
| 1787943252 | 20.56° C | 69% | 1015.2 hPa | - | - | - | - |
| 1787941446 | 20.56° C | 71% | 1014.8 hPa | - | - | - | - |
| 1787939640 | 21.67° C | 65% | 1014.4 hPa | - | - | - | - |
| 1787937834 | 22.78° C | 60% | 1013.7 hPa | - | - | - | - |
| 1787936028 | 23.33° C | 57% | 1013.3 hPa | - | - | - | - |
| 1787934222 | 25° C | 47% | 1013.1 hPa | - | - | - | - |
* Rain since midnight (hover to see other rain measurements)
** Current wind speed in m/s (hover to see current wind gust speed)